Blankenberge, Belgium
Current Conditions -  °F | °C
As of 12:20 PM on Sunday 21 Dec 2014 (Local Time) from EBOS Reporting Station
Moderate Rain Moderate Rain  
Wind Chill: 39°   Ceiling: 800
Heat Index: 45°   Visibility: 1.8mi
Dew Point: 45°   Wind: 10mph
Humidity: 100%   Direction: 240°WSW
Pressure: 30.39"   Gusts: NA
Location:  51.31°N, 3.13°E
Report Text: EBOS 211120Z 24009KT 3000 RADZ BR SCT004 BKN008 07/07 Q1029 TEMPO 6000 NSW BKN012
Loading
Personal Weather Stations






























Interactive Weather Map New forecast layout! Learn more

10-Day Weather Forecast

Advertisements
Track Severe Weather on mobile